Terminal Aerodrome Forecast
Issued by NWS Wilmington, OH

Current Version | Previous Version | Graphics & Text | Print | Product List | Glossary On
Versions: 1 2 3 4 5 6 7 8 9 10 11 12 13 14 15 16 17 18 19 20 21 22 23 24 25
744
FTUS41 KILN 300054 AAA
TAFCMH
TAF AMD
KCMH 300054Z 3001/3024 05008KT P6SM SCT025 BKN100
      TEMPO 3001/3005 BKN005
     FM300500 12005KT P6SM VCSH BKN060
     FM300900 13005KT P6SM BKN060
     FM301400 19015G24KT P6SM SCT080=

USA.gov is the U.S. government's official web portal to all federal, state and local government web resources and services.